Text Box: All records at near 07:00 local time
Kleivo 1 weather for Nov 2008
Month no. 24
Obs.
Da.
Temp. Dew Point Precip. Wind
Speed
Wind gusts Cloud cover Press. Humidity Wind dir. Sunny OPT
01.11.2008 1,9   0,0 0,0   10 998,0 76,0 0,0 1 80,0 %
02.11.2008 4,6   0,0 0,0   10 1002,7 90,0 0,0 1 82,5 %
03.11.2008 3,7   0,0 0,0   10 1005,1 88,0 0,0 1 82,5 %
04.11.2008 2,9   0,0 0,0   10 1005,8 91,0 0,0 1 82,5 %
05.11.2008 1,6   0,0 0,0   10 1008,5 93,0 0,0 1 80,0 %
06.11.2008 10,6   0,0 0,0   10 1005,8 53,0 0,0 1 90,0 %
07.11.2008 8,7   0,0 0,0   1 996,9 60,0 0,0   65,0 %
08.11.2008 9,1   0,0 0,0   1 990,2 79,0 0,0   65,0 %
09.11.2008 9,5   0,0 0,0   1 978,7 74,0 0,0   65,0 %
10.11.2008 5,6   0,0 0,0   1 963,8 90,0 0,0   62,5 %
11.11.2008 5,9   0,0 0,0   3 976,3 76,0 0,0 1 67,5 %
12.11.2008 -0,7   0,0 0,0   10 985,0 90,0 0,0 1 77,5 %
13.11.2008 3,9   0,0 0,0   8 995,3 89,0 0,0 1 77,5 %
14.11.2008 9,9   9,7 0,0   1 982,7 96,0 0,0   57,5 %
15.11.2008 8,3   0,0 0,0   0 983,4 90,0 0,0   62,5 %
16.11.2008 5,4   0,0 0,0   0 987,5 72,0 0,0   60,0 %
17.11.2008 2,9   0,0 0,0   2 1009,1 92,0 0,0   62,5 %
18.11.2008 5,8   0,0 0,0   1 979,3 91,0 0,0   62,5 %
19.11.2008 3,3   0,0 0,0   0 980,4 94,0 0,0   57,5 %
20.11.2008 3,4   0,0 0,0   1 972,6 87,0 0,0   60,0 %
21.11.2008 -2,1   0,0 0,0   3 978,7 92,0 0,0 1 60,0 %
22.11.2008 0,1   0,0 0,0   1 985,1 90,0 0,0   57,5 %
23.11.2008 -1,5   0,0 0,0   1 982,4 83,0 0,0   55,0 %
24.11.2008 -5,2   0,0 0,0   10 979,7 85,0 0,0 1 75,0 %
25.11.2008 0,2   0,0 0,0   10 992,5 85,0 0,0 1 80,0 %
26.11.2008 6,6   0,0 0,0   1 988,1 95,0 0,0   62,5 %
27.11.2008 8,9   0,0 0,0   2 975,8 90,0     67,5 %
28.11.2008 2,5   0,0 0,0   1 975,8 92,0     60,0 %
29.11.2008 4,6   0,0 0,0   1 979,9 75,0     60,0 %
30.11.2008 4,1   0,0 0,0   1 976,5 81,0     60,0 %
                       
Avrg/Sum 4,1   9,7 0,0   4,0 987,4 84,6 0,0 12 67,9 %